Time;durP1;ratioP1;P1;durP2;ratioP2;P2;SDS_P1;SDS_P2;PMS_P1;PMS_P2;Temp;Humidity;BMP_temperature;BMP_pressure;BME280_temperature;BME280_humidity;BME280_pressure;Samples;Min_cycle;Max_cycle;Signal;HPM_P1;HPM_P2
2023/03/29 04:31:44;;;;;;;10.20;2.92;;;13.50;84.70;;;;;;5339592;23;20141;-78
2023/03/29 04:34:10;;;;;;;9.07;2.72;;;13.40;84.70;;;;;;4994106;28;20113;-77
2023/03/29 04:36:35;;;;;;;16.55;3.28;;;13.40;84.70;;;;;;4978305;28;20061;-77
2023/03/29 04:39:02;;;;;;;9.90;3.08;;;13.50;84.60;;;;;;4978763;28;20482;-77
2023/03/29 04:41:28;;;;;;;10.10;3.67;;;13.50;84.20;;;;;;4989958;28;20022;-77
2023/03/29 04:43:54;;;;;;;17.02;3.45;;;13.40;84.40;;;;;;4996546;28;20041;-78
2023/03/29 04:46:21;;;;;;;16.05;3.63;;;13.40;84.50;;;;;;4993208;28;20144;-78
2023/03/29 04:48:47;;;;;;;13.15;2.88;;;13.50;84.30;;;;;;4978403;28;20490;-77
2023/03/29 04:51:12;;;;;;;16.25;3.35;;;13.40;84.40;;;;;;4980672;28;20026;-77
2023/03/29 04:53:38;;;;;;;13.38;3.22;;;13.40;84.70;;;;;;4997139;28;20046;-76
2023/03/29 04:56:05;;;;;;;13.85;2.53;;;13.50;84.40;;;;;;4997612;28;20094;-74
2023/03/29 04:58:30;;;;;;;17.77;2.88;;;13.60;84.20;;;;;;4980065;28;20102;-75
2023/03/29 05:00:57;;;;;;;12.13;3.03;;;13.60;84.20;;;;;;4977855;28;20027;-74
2023/03/29 05:03:23;;;;;;;11.13;2.90;;;13.50;84.10;;;;;;4992188;28;20453;-76
2023/03/29 05:05:49;;;;;;;7.28;2.90;;;13.60;84.00;;;;;;4997378;28;20481;-75
2023/03/29 05:08:15;;;;;;;14.10;3.63;;;13.60;83.90;;;;;;4997588;28;20539;-76
2023/03/29 05:10:42;;;;;;;7.15;2.78;;;13.50;84.00;;;;;;4983507;28;20038;-76
2023/03/29 05:13:08;;;;;;;7.20;2.60;;;13.50;84.30;;;;;;4997325;28;20026;-74
2023/03/29 05:15:35;;;;;;;7.40;1.77;;;13.50;84.20;;;;;;4980065;28;20027;-73
2023/03/29 05:18:01;;;;;;;8.07;3.03;;;13.40;84.30;;;;;;4993572;28;20034;-76
2023/03/29 05:20:28;;;;;;;6.55;2.60;;;13.50;84.60;;;;;;4990387;28;20034;-77
2023/03/29 05:22:55;;;;;;;7.03;2.38;;;13.50;84.40;;;;;;4989449;28;20418;-75
2023/03/29 05:25:21;;;;;;;11.07;3.50;;;13.50;84.40;;;;;;4995686;28;20022;-77
2023/03/29 05:27:47;;;;;;;4.35;2.53;;;13.50;84.30;;;;;;4997568;28;20033;-78
2023/03/29 05:30:14;;;;;;;8.88;2.40;;;13.50;84.20;;;;;;4976276;28;20035;-78
2023/03/29 05:32:41;;;;;;;8.88;2.85;;;13.50;84.30;;;;;;4996613;28;20093;-77
2023/03/29 05:35:07;;;;;;;14.30;3.60;;;13.30;84.00;;;;;;4988434;28;20516;-77
2023/03/29 05:37:33;;;;;;;18.20;3.75;;;13.30;84.30;;;;;;4990780;28;20073;-77
2023/03/29 05:39:59;;;;;;;11.85;2.78;;;13.20;84.30;;;;;;4992346;28;20073;-78
2023/03/29 05:42:25;;;;;;;19.50;3.22;;;13.20;84.30;;;;;;4995298;28;20026;-76
2023/03/29 05:44:50;;;;;;;11.13;3.20;;;13.20;84.00;;;;;;4960666;28;20051;-75
2023/03/29 05:47:16;;;;;;;7.45;2.25;;;13.00;84.10;;;;;;4977369;28;20015;-75
2023/03/29 05:49:42;;;;;;;7.07;2.75;;;13.10;83.70;;;;;;4977523;28;20478;-75
2023/03/29 05:52:08;;;;;;;12.38;2.80;;;13.00;83.70;;;;;;4977627;28;20026;-76
2023/03/29 05:54:34;;;;;;;6.25;2.22;;;12.90;83.40;;;;;;4977403;28;20107;-75
2023/03/29 05:57:00;;;;;;;5.85;2.53;;;12.90;83.30;;;;;;4959756;28;20035;-75
2023/03/29 05:59:28;;;;;;;10.90;3.05;;;12.90;83.20;;;;;;4981059;28;20034;-75
2023/03/29 06:01:54;;;;;;;8.05;2.70;;;12.80;83.00;;;;;;4993132;28;20014;-75
2023/03/29 06:04:19;;;;;;;13.07;2.88;;;12.70;82.90;;;;;;4998084;28;20400;-75
2023/03/29 06:06:45;;;;;;;7.80;2.80;;;12.60;82.80;;;;;;4993639;28;20040;-75
2023/03/29 06:09:11;;;;;;;5.90;1.85;;;12.50;83.00;;;;;;4995548;28;20030;-75
2023/03/29 06:11:37;;;;;;;12.05;3.03;;;12.60;82.60;;;;;;4974936;28;20477;-75
2023/03/29 06:14:03;;;;;;;7.15;2.50;;;12.60;82.20;;;;;;4991851;28;20038;-75
2023/03/29 06:16:29;;;;;;;5.63;2.72;;;12.50;82.10;;;;;;4996351;28;20448;-76
2023/03/29 06:18:55;;;;;;;9.25;2.92;;;12.60;82.10;;;;;;4982118;28;20030;-75
2023/03/29 06:21:21;;;;;;;6.90;2.33;;;12.50;81.90;;;;;;4959543;28;20033;-75
2023/03/29 06:23:47;;;;;;;8.85;3.08;;;12.60;81.60;;;;;;4959487;28;20022;-76
2023/03/29 06:26:13;;;;;;;10.98;2.17;;;12.50;81.40;;;;;;4976905;28;20450;-76
2023/03/29 06:28:38;;;;;;;8.25;2.88;;;12.60;81.30;;;;;;4976523;28;20027;-76
2023/03/29 06:31:04;;;;;;;10.43;2.90;;;12.50;80.90;;;;;;4976446;28;20417;-75
2023/03/29 06:33:31;;;;;;;10.23;3.47;;;12.60;80.90;;;;;;4993881;28;20046;-76
2023/03/29 06:35:57;;;;;;;2.95;2.40;;;12.60;80.80;;;;;;4986382;28;20034;-75
2023/03/29 06:38:25;;;;;;;4.07;2.28;;;12.60;80.50;;;;;;4994787;28;20026;-76
2023/03/29 06:40:51;;;;;;;8.20;2.13;;;12.70;80.70;;;;;;4995602;28;20029;-76
2023/03/29 06:43:17;;;;;;;10.75;1.95;;;12.80;80.40;;;;;;4974436;28;20027;-75
2023/03/29 06:45:43;;;;;;;5.72;2.30;;;12.70;79.80;;;;;;4976725;28;20031;-75
2023/03/29 06:48:09;;;;;;;6.10;2.20;;;12.80;79.80;;;;;;4976799;28;20027;-75
2023/03/29 06:50:35;;;;;;;5.88;2.00;;;12.80;78.80;;;;;;4976500;28;20030;-76
2023/03/29 06:53:02;;;;;;;2.15;1.35;;;12.80;79.10;;;;;;4992496;28;20045;-76
2023/03/29 06:55:28;;;;;;;2.75;1.70;;;12.90;78.70;;;;;;4995937;28;20029;-75
2023/03/29 06:57:54;;;;;;;9.63;2.88;;;13.00;78.50;;;;;;4990540;28;20043;-75
2023/03/29 07:00:26;;;;;;;7.75;2.03;;;13.20;78.10;;;;;;4989177;28;20524;-75
2023/03/29 07:02:57;;;;;;;7.03;2.17;;;13.20;77.60;;;;;;4970141;28;20041;-76
2023/03/29 07:05:26;;;;;;;3.30;1.67;;;13.20;77.20;;;;;;4987148;28;20110;-76
2023/03/29 07:07:58;;;;;;;7.80;2.23;;;13.30;77.20;;;;;;4985136;28;20105;-76
2023/03/29 07:10:33;;;;;;;8.65;2.25;;;13.30;76.90;;;;;;4992199;28;20033;-78
2023/03/29 07:12:59;;;;;;;3.65;2.00;;;13.30;76.30;;;;;;4993817;28;20038;-77
2023/03/29 07:15:26;;;;;;;6.18;1.77;;;13.30;76.70;;;;;;4978292;28;20022;-78
2023/03/29 07:17:52;;;;;;;9.30;2.55;;;13.30;76.50;;;;;;4977695;28;20099;-78
2023/03/29 07:20:18;;;;;;;5.95;1.98;;;13.30;76.20;;;;;;4995540;28;20018;-77
2023/03/29 07:22:45;;;;;;;4.53;1.90;;;13.30;76.20;;;;;;4977113;28;20035;-79
2023/03/29 07:25:12;;;;;;;7.05;1.98;;;13.30;75.90;;;;;;4978436;28;20033;-78
2023/03/29 07:27:39;;;;;;;3.50;2.00;;;13.30;76.10;;;;;;4978241;28;20026;-78
2023/03/29 07:30:09;;;;;;;7.00;1.83;;;13.30;76.00;;;;;;4976379;28;20639;-78
2023/03/29 07:32:45;;;;;;;5.90;2.05;;;13.40;75.70;;;;;;4991006;28;20086;-77
2023/03/29 07:35:13;;;;;;;8.27;2.10;;;13.50;74.90;;;;;;4971906;28;20460;-76
2023/03/29 07:37:43;;;;;;;10.82;2.30;;;13.30;75.00;;;;;;4992794;28;20019;-76
2023/03/29 07:40:14;;;;;;;5.33;1.80;;;13.30;74.70;;;;;;4994502;28;20031;-76
2023/03/29 07:42:42;;;;;;;11.07;2.25;;;13.20;74.60;;;;;;4976125;28;20022;-76
2023/03/29 07:45:10;;;;;;;7.70;2.30;;;13.20;75.40;;;;;;4976470;28;20142;-76
2023/03/29 07:47:36;;;;;;;6.20;2.30;;;13.20;74.80;;;;;;4977583;28;20041;-76
2023/03/29 07:50:03;;;;;;;6.97;2.17;;;13.20;74.60;;;;;;4994153;28;20014;-76
2023/03/29 07:52:29;;;;;;;7.85;2.67;;;13.20;74.90;;;;;;4995008;28;20033;-76
2023/03/29 07:54:55;;;;;;;6.38;2.33;;;13.20;74.20;;;;;;4976104;28;20053;-75
2023/03/29 07:57:23;;;;;;;6.72;2.10;;;13.20;74.20;;;;;;4998632;28;20485;-76
2023/03/29 07:59:48;;;;;;;9.88;1.90;;;13.10;74.50;;;;;;4995993;28;20034;-76
2023/03/29 08:02:14;;;;;;;6.07;2.25;;;13.20;74.40;;;;;;4995920;28;20027;-76
2023/03/29 08:04:40;;;;;;;4.43;1.95;;;13.10;73.50;;;;;;4995885;28;20512;-76
2023/03/29 08:07:06;;;;;;;6.32;2.50;;;13.10;73.80;;;;;;4998400;28;20072;-76
2023/03/29 08:09:32;;;;;;;8.68;2.35;;;13.00;73.60;;;;;;4981051;28;20404;-75
2023/03/29 08:11:57;;;;;;;5.63;1.77;;;13.20;73.90;;;;;;4997306;28;20030;-76
2023/03/29 08:14:32;;;;;;;9.18;2.10;;;13.10;73.50;;;;;;4995886;28;20026;-75
2023/03/29 08:16:58;;;;;;;4.20;1.65;;;13.20;73.80;;;;;;4994616;28;20077;-75
2023/03/29 08:19:24;;;;;;;3.10;1.60;;;13.20;73.00;;;;;;4980747;28;20027;-75
2023/03/29 08:21:50;;;;;;;5.13;2.47;;;13.40;73.40;;;;;;4998013;28;20058;-75
2023/03/29 08:24:16;;;;;;;5.68;2.25;;;13.30;72.40;;;;;;4995238;28;20129;-75
2023/03/29 08:26:42;;;;;;;7.72;2.10;;;13.40;72.80;;;;;;4980890;28;20061;-75
2023/03/29 08:29:08;;;;;;;6.68;2.92;;;13.50;72.20;;;;;;4996042;28;20030;-75
2023/03/29 08:31:33;;;;;;;4.38;2.20;;;13.40;72.20;;;;;;4997553;28;20082;-75
2023/03/29 08:34:00;;;;;;;3.28;1.90;;;13.40;72.40;;;;;;4977277;28;20022;-76
2023/03/29 08:36:26;;;;;;;5.18;2.20;;;13.40;72.10;;;;;;4997090;28;20113;-75
2023/03/29 08:38:52;;;;;;;6.78;2.88;;;13.40;72.30;;;;;;4979936;28;20026;-75
2023/03/29 08:41:37;;;;;;;9.32;2.50;;;13.50;72.20;;;;;;4997697;28;20484;-75
2023/03/29 08:44:28;;;;;;;6.47;2.22;;;13.60;71.90;;;;;;4987156;28;20029;-75
2023/03/29 08:47:05;;;;;;;7.47;2.35;;;13.60;71.00;;;;;;4988764;28;20137;-75
2023/03/29 08:49:33;;;;;;;7.80;2.35;;;13.70;71.10;;;;;;4990459;28;20042;-75
2023/03/29 08:52:03;;;;;;;5.80;1.90;;;13.80;70.80;;;;;;4989619;28;20026;-75
2023/03/29 08:54:39;;;;;;;3.58;1.63;;;13.80;69.60;;;;;;4991830;28;20026;-75
2023/03/29 08:57:34;;;;;;;6.20;1.88;;;13.90;69.90;;;;;;4994255;28;20124;-75
2023/03/29 09:00:04;;;;;;;6.22;2.22;;;14.00;70.40;;;;;;4988221;28;20043;-75
2023/03/29 09:02:34;;;;;;;7.10;1.85;;;13.80;68.90;;;;;;4995947;28;20022;-75
2023/03/29 09:05:16;;;;;;;4.45;1.60;;;13.70;68.50;;;;;;4995848;28;20515;-75
2023/03/29 09:07:42;;;;;;;1.75;1.30;;;13.90;69.00;;;;;;4989155;28;20027;-75
2023/03/29 09:10:14;;;;;;;4.65;2.13;;;14.00;67.70;;;;;;4970613;28;20033;-75
2023/03/29 09:13:02;;;;;;;6.07;2.03;;;14.20;67.90;;;;;;4986839;28;20106;-75
2023/03/29 09:15:45;;;;;;;5.53;2.20;;;14.20;66.80;;;;;;4987096;28;20101;-75
2023/03/29 09:18:37;;;;;;;3.28;1.80;;;14.30;66.90;;;;;;4968276;28;20034;-75
2023/03/29 09:21:15;;;;;;;5.18;2.20;;;14.30;66.70;;;;;;4993707;28;20374;-75
2023/03/29 09:24:02;;;;;;;4.85;1.70;;;14.50;67.00;;;;;;4989409;28;20041;-75
2023/03/29 09:26:47;;;;;;;5.93;1.90;;;14.70;66.10;;;;;;4987450;28;20033;-76
2023/03/29 09:29:19;;;;;;;5.35;1.40;;;14.80;65.20;;;;;;4987885;28;20694;-75
2023/03/29 09:31:46;;;;;;;4.90;2.28;;;15.00;64.40;;;;;;4992715;28;20492;-76
2023/03/29 09:34:22;;;;;;;5.03;1.80;;;15.20;63.30;;;;;;4996268;28;20088;-76
2023/03/29 09:36:58;;;;;;;5.40;2.42;;;15.20;63.40;;;;;;4992905;28;20054;-76
2023/03/29 09:39:27;;;;;;;3.42;1.85;;;15.30;63.30;;;;;;4991991;28;20053;-76
2023/03/29 09:42:08;;;;;;;5.70;2.10;;;15.50;62.30;;;;;;4993850;28;21769;-75
2023/03/29 09:44:43;;;;;;;6.55;2.03;;;15.70;62.00;;;;;;4992712;28;20030;-75
2023/03/29 09:47:18;;;;;;;3.88;1.67;;;15.70;60.80;;;;;;4994054;28;20029;-75
2023/03/29 09:49:48;;;;;;;4.45;1.70;;;15.80;60.10;;;;;;4993709;28;20041;-77
2023/03/29 09:52:15;;;;;;;6.82;1.65;;;15.50;58.70;;;;;;4990427;28;20031;-77
2023/03/29 09:54:42;;;;;;;4.30;1.80;;;15.60;60.10;;;;;;4989645;28;20133;-76
2023/03/29 09:57:14;;;;;;;5.10;1.60;;;15.70;59.70;;;;;;4988528;28;20037;-77
2023/03/29 09:59:40;;;;;;;4.75;1.73;;;15.40;59.00;;;;;;4990793;28;20489;-77
2023/03/29 10:02:09;;;;;;;4.53;2.10;;;15.50;59.60;;;;;;4972322;28;20104;-77
2023/03/29 10:04:35;;;;;;;3.35;1.35;;;15.30;59.70;;;;;;4992884;28;20023;-76
2023/03/29 10:07:02;;;;;;;4.05;1.80;;;15.50;59.90;;;;;;4991506;28;20472;-76
2023/03/29 10:09:29;;;;;;;5.95;2.10;;;15.70;60.30;;;;;;4992394;28;20040;-76
2023/03/29 10:12:00;;;;;;;11.32;2.10;;;15.60;57.50;;;;;;4987532;28;20358;-77
2023/03/29 10:14:37;;;;;;;4.28;1.83;;;15.40;56.90;;;;;;4992114;28;20026;-77
2023/03/29 10:17:24;;;;;;;3.40;2.13;;;15.40;58.00;;;;;;4988751;28;20023;-77
2023/03/29 10:19:55;;;;;;;5.63;2.17;;;15.60;58.20;;;;;;4989853;28;20498;-78
2023/03/29 10:22:25;;;;;;;4.22;1.88;;;15.70;57.20;;;;;;4989309;28;20448;-77
2023/03/29 10:24:52;;;;;;;3.30;2.17;;;15.70;58.20;;;;;;4968769;28;21337;-77
2023/03/29 10:27:24;;;;;;;4.78;2.30;;;15.70;57.90;;;;;;4945165;28;20121;-77
2023/03/29 10:29:51;;;;;;;5.85;2.88;;;15.80;58.10;;;;;;4979532;28;20081;-77
2023/03/29 10:32:37;;;;;;;4.72;2.38;;;16.10;58.30;;;;;;4979922;28;20133;-77
2023/03/29 10:35:20;;;;;;;5.43;2.20;;;16.00;59.20;;;;;;4989014;28;20038;-77
2023/03/29 10:37:50;;;;;;;5.68;2.60;;;16.20;57.90;;;;;;4981378;28;20311;-78
2023/03/29 10:40:31;;;;;;;3.97;1.92;;;16.50;57.00;;;;;;4994652;28;20154;-78
2023/03/29 10:43:00;;;;;;;3.80;2.20;;;16.20;56.50;;;;;;4987976;28;20023;-78
2023/03/29 10:45:27;;;;;;;4.50;2.00;;;16.30;55.40;;;;;;4978102;28;20037;-78
2023/03/29 10:47:56;;;;;;;4.68;2.30;;;16.40;57.10;;;;;;4995876;28;20023;-81
2023/03/29 10:50:21;;;;;;;8.88;2.50;;;16.30;57.00;;;;;;4993281;28;20058;-78
2023/03/29 10:52:49;;;;;;;4.13;1.85;;;16.50;57.50;;;;;;4995659;28;20062;-78
2023/03/29 10:55:15;;;;;;;3.78;2.22;;;16.70;56.60;;;;;;4977306;28;20034;-78
2023/03/29 10:57:57;;;;;;;4.25;2.05;;;16.70;56.30;;;;;;4995632;28;20011;-78
2023/03/29 11:00:35;;;;;;;2.75;1.67;;;16.80;56.30;;;;;;4976508;28;20493;-78
2023/03/29 11:03:14;;;;;;;4.30;1.67;;;16.80;56.40;;;;;;4970717;28;20038;-78
2023/03/29 11:05:56;;;;;;;3.73;2.03;;;16.90;56.40;;;;;;4985940;28;20034;-78
2023/03/29 11:08:44;;;;;;;3.10;1.48;;;17.10;55.70;;;;;;4985485;28;20030;-78
2023/03/29 11:11:42;;;;;;;4.18;1.83;;;17.20;56.00;;;;;;4989706;28;20393;-78
2023/03/29 11:14:18;;;;;;;3.55;1.90;;;17.30;56.00;;;;;;4962290;28;20042;-77
2023/03/29 11:17:04;;;;;;;5.03;2.22;;;17.50;55.90;;;;;;4990886;28;20026;-77
2023/03/29 11:19:57;;;;;;;5.13;2.13;;;17.70;55.50;;;;;;4987365;28;20027;-80
2023/03/29 11:22:47;;;;;;;4.97;2.00;;;17.80;54.40;;;;;;4969616;28;20022;-79
2023/03/29 11:25:42;;;;;;;4.15;1.42;;;17.90;54.90;;;;;;4985241;28;20034;-80
2023/03/29 11:28:18;;;;;;;6.45;1.70;;;18.00;55.10;;;;;;4983790;28;20028;-79
2023/03/29 11:31:02;;;;;;;6.35;2.03;;;18.10;55.40;;;;;;4988245;28;20042;-79
2023/03/29 11:33:50;;;;;;;2.53;2.22;;;18.10;55.10;;;;;;4988130;28;20031;-84
2023/03/29 11:36:52;;;;;;;4.10;1.80;;;18.20;54.70;;;;;;5001655;28;20504;-78
2023/03/29 11:39:51;;;;;;;4.22;2.00;;;18.30;54.40;;;;;;4968662;28;20030;-82
2023/03/29 11:42:23;;;;;;;4.95;1.98;;;18.50;54.40;;;;;;4998200;28;20553;-82
2023/03/29 11:44:52;;;;;;;4.10;1.80;;;18.70;53.70;;;;;;4999546;28;20088;-85
2023/03/29 11:47:21;;;;;;;3.92;1.88;;;18.80;53.80;;;;;;4984377;28;20405;-78
2023/03/29 11:49:56;;;;;;;4.32;1.55;;;18.80;53.00;;;;;;4980181;28;20038;-82
2023/03/29 11:52:51;;;;;;;5.13;2.22;;;18.90;51.40;;;;;;4962827;28;20394;-82
2023/03/29 11:55:38;;;;;;;5.65;1.77;;;19.00;52.20;;;;;;4974896;28;20085;-81
2023/03/29 11:58:16;;;;;;;2.92;1.52;;;19.20;50.30;;;;;;4972622;28;20038;-81
2023/03/29 12:00:54;;;;;;;1.98;1.55;;;19.30;49.80;;;;;;4988636;28;20065;-82
2023/03/29 12:03:35;;;;;;;4.53;1.55;;;19.40;48.50;;;;;;4989109;28;20026;-81
2023/03/29 12:06:11;;;;;;;3.67;1.15;;;19.50;49.70;;;;;;4971733;28;20401;-80
2023/03/29 12:09:05;;;;;;;3.25;1.52;;;19.60;49.80;;;;;;4986506;28;20105;-81
2023/03/29 12:12:01;;;;;;;3.75;2.13;;;19.70;48.20;;;;;;4966399;28;21281;-81
2023/03/29 12:14:52;;;;;;;5.15;1.65;;;19.80;48.30;;;;;;4903938;28;20044;-81
2023/03/29 12:17:25;;;;;;;;;;;19.80;48.00;;;;;;4987532;28;20121;-81
2023/03/29 12:20:18;;;;;;;4.93;1.35;;;19.90;44.50;;;;;;4990145;28;21312;-81
2023/03/29 12:22:47;;;;;;;3.22;1.70;;;20.00;45.90;;;;;;4971938;28;20042;-80
2023/03/29 12:25:18;;;;;;;1.75;1.20;;;20.10;46.60;;;;;;4988716;28;20026;-80
2023/03/29 12:28:01;;;;;;;4.60;1.65;;;20.20;46.80;;;;;;4973759;28;20461;-80
2023/03/29 12:30:39;;;;;;;2.10;1.40;;;20.30;46.70;;;;;;4971334;28;20029;-81
2023/03/29 12:33:30;;;;;;;3.88;1.45;;;20.30;46.90;;;;;;4971578;28;20035;-80
2023/03/29 12:36:11;;;;;;;4.22;1.73;;;20.40;47.50;;;;;;4993196;28;20023;-81
2023/03/29 12:38:37;;;;;;;5.75;1.98;;;20.50;47.60;;;;;;4990088;28;20109;-81
2023/03/29 12:41:18;;;;;;;3.55;1.50;;;20.60;46.40;;;;;;4994082;28;20026;-80
2023/03/29 12:43:44;;;;;;;3.72;1.50;;;20.60;44.70;;;;;;4971852;28;20093;-82
2023/03/29 12:46:16;;;;;;;2.25;1.17;;;20.60;44.30;;;;;;4989641;28;20025;-80
2023/03/29 12:48:44;;;;;;;3.40;0.90;;;20.70;44.80;;;;;;4994509;28;20026;-81
2023/03/29 12:51:22;;;;;;;5.35;1.23;;;20.70;43.00;;;;;;4969294;28;20034;-81
2023/03/29 12:53:52;;;;;;;2.95;1.60;;;20.70;43.40;;;;;;4991170;28;20033;-81
2023/03/29 12:56:38;;;;;;;3.83;1.13;;;20.80;43.80;;;;;;4980618;28;20507;-82
2023/03/29 12:59:24;;;;;;;2.67;0.80;;;20.80;40.70;;;;;;4982382;28;20413;-82
2023/03/29 13:02:20;;;;;;;1.50;0.90;;;20.80;39.60;;;;;;4991964;28;20033;-81
2023/03/29 13:04:53;;;;;;;4.13;1.25;;;20.80;39.60;;;;;;4974163;28;20034;-81
2023/03/29 13:07:22;;;;;;;4.63;1.48;;;20.80;39.90;;;;;;4989103;28;20113;-80
2023/03/29 13:09:57;;;;;;;4.97;1.27;;;20.80;39.80;;;;;;4986602;28;20037;-80
2023/03/29 13:12:34;;;;;;;7.35;1.45;;;20.90;39.70;;;;;;4990038;28;20027;-80
2023/03/29 13:15:20;;;;;;;4.70;1.30;;;21.00;39.10;;;;;;4991230;28;20038;-80
2023/03/29 13:17:51;;;;;;;4.80;1.27;;;20.90;38.70;;;;;;4990460;28;20524;-81
2023/03/29 13:20:28;;;;;;;3.17;1.10;;;21.00;38.90;;;;;;4979085;28;20053;-80
2023/03/29 13:23:19;;;;;;;1.70;1.00;;;21.10;38.40;;;;;;4981713;28;20177;-80
2023/03/29 13:25:48;;;;;;;1.98;0.80;;;21.10;37.90;;;;;;4995112;28;20026;-80
2023/03/29 13:28:51;;;;;;;4.15;0.80;;;21.00;36.80;;;;;;4990502;28;20045;-80
2023/03/29 13:31:43;;;;;;;3.15;1.05;;;21.00;38.60;;;;;;4991939;28;20077;-81
2023/03/29 13:34:31;;;;;;;1.42;0.85;;;21.10;37.90;;;;;;4974343;28;20034;-80
2023/03/29 13:37:15;;;;;;;2.03;0.80;;;21.20;36.80;;;;;;4971858;28;20153;-80
2023/03/29 13:39:51;;;;;;;2.33;1.10;;;21.20;36.60;;;;;;4976589;28;20022;-79
2023/03/29 13:42:23;;;;;;;3.25;1.13;;;21.20;36.30;;;;;;4990487;28;20059;-79
2023/03/29 13:44:49;;;;;;;3.13;1.13;;;21.20;35.70;;;;;;4998983;28;20109;-80
2023/03/29 13:47:34;;;;;;;2.47;0.90;;;21.10;37.40;;;;;;4995423;28;20496;-79
2023/03/29 13:50:05;;;;;;;2.83;1.08;;;21.20;37.40;;;;;;4978782;28;20057;-79
2023/03/29 13:52:38;;;;;;;1.88;0.90;;;21.30;37.20;;;;;;4993328;28;20067;-80
2023/03/29 13:55:16;;;;;;;3.92;0.77;;;21.30;36.80;;;;;;4977587;28;20579;-79
2023/03/29 13:58:08;;;;;;;2.05;1.05;;;21.40;37.80;;;;;;5000961;28;20445;-80
2023/03/29 14:00:43;;;;;;;2.25;0.90;;;21.40;37.50;;;;;;4994726;28;20026;-79
2023/03/29 14:03:13;;;;;;;1.50;0.80;;;21.40;36.30;;;;;;4991452;28;20038;-80
2023/03/29 14:05:43;;;;;;;1.10;0.60;;;21.30;37.00;;;;;;4992042;28;20513;-80
2023/03/29 14:08:20;;;;;;;2.58;0.90;;;21.30;36.10;;;;;;4972246;28;20022;-80
2023/03/29 14:10:46;;;;;;;2.08;0.95;;;21.20;36.40;;;;;;4973036;28;20493;-80
2023/03/29 14:13:18;;;;;;;5.72;2.00;;;21.20;37.30;;;;;;4991709;28;20075;-79
2023/03/29 14:15:46;;;;;;;2.65;0.90;;;21.30;37.30;;;;;;4989057;28;20060;-79
2023/03/29 14:18:15;;;;;;;4.38;1.10;;;21.30;36.20;;;;;;4987455;28;20635;-79
2023/03/29 14:20:45;;;;;;;2.35;1.20;;;21.20;36.30;;;;;;4989571;28;20500;-83
2023/03/29 14:23:18;;;;;;;3.20;0.98;;;21.20;36.10;;;;;;4991971;28;20508;-81
2023/03/29 14:25:44;;;;;;;2.45;0.77;;;21.20;36.30;;;;;;4992404;28;20077;-79
2023/03/29 14:28:25;;;;;;;3.83;0.93;;;21.10;36.60;;;;;;4974187;28;20030;-80
2023/03/29 14:30:52;;;;;;;2.22;0.90;;;21.00;37.20;;;;;;4993065;28;20050;-79
2023/03/29 14:33:28;;;;;;;2.38;0.82;;;21.00;36.90;;;;;;4975406;28;20949;-80
2023/03/29 14:35:55;;;;;;;3.22;0.90;;;21.10;36.90;;;;;;4992016;28;20026;-79
2023/03/29 14:38:22;;;;;;;2.55;0.60;;;21.20;37.20;;;;;;4976753;28;20044;-80
2023/03/29 14:40:49;;;;;;;2.13;0.98;;;21.30;37.30;;;;;;4978626;28;20030;-79
2023/03/29 14:43:19;;;;;;;2.42;0.95;;;21.30;36.80;;;;;;4991829;28;20046;-79
2023/03/29 14:45:45;;;;;;;;;;;21.30;37.30;;;;;;4989545;28;20386;-81
2023/03/29 14:48:14;;;;;;;5.05;1.05;;;21.30;37.70;;;;;;4992138;28;19976;-79
2023/03/29 14:50:41;;;;;;;4.38;1.02;;;21.20;37.10;;;;;;4990105;28;20571;-79
2023/03/29 14:53:15;;;;;;;3.50;1.00;;;21.10;37.40;;;;;;4973678;28;20069;-79
2023/03/29 14:55:43;;;;;;;2.72;0.70;;;21.10;37.60;;;;;;4991267;28;20019;-79
2023/03/29 14:58:20;;;;;;;4.88;0.88;;;21.00;36.70;;;;;;4974284;28;20026;-79
2023/03/29 15:00:49;;;;;;;3.75;1.10;;;21.00;37.70;;;;;;4984941;28;20098;-79
2023/03/29 15:03:15;;;;;;;2.50;1.33;;;21.00;38.70;;;;;;4988561;28;20041;-79
2023/03/29 15:06:00;;;;;;;3.05;1.30;;;21.00;38.50;;;;;;4994238;28;20042;-79
2023/03/29 15:08:36;;;;;;;1.85;0.70;;;21.00;38.50;;;;;;4976108;28;20037;-79
2023/03/29 15:11:09;;;;;;;4.72;1.23;;;21.00;38.00;;;;;;4976533;28;20030;-79
2023/03/29 15:13:41;;;;;;;2.55;1.15;;;21.00;38.40;;;;;;4988207;28;20031;-79
2023/03/29 15:16:11;;;;;;;4.95;0.88;;;21.00;38.50;;;;;;4978595;28;20034;-79
2023/03/29 15:18:40;;;;;;;4.10;1.67;;;21.00;38.00;;;;;;4992253;28;20026;-79
2023/03/29 15:21:07;;;;;;;2.38;0.90;;;20.90;38.80;;;;;;4978947;28;20058;-88
2023/03/29 15:23:36;;;;;;;1.95;0.90;;;20.80;38.50;;;;;;4993288;28;20043;-79
2023/03/29 15:26:14;;;;;;;2.45;0.80;;;20.80;38.90;;;;;;4994351;28;20026;-79
2023/03/29 15:28:49;;;;;;;4.00;1.20;;;20.80;38.90;;;;;;4991522;28;20592;-79
2023/03/29 15:31:18;;;;;;;4.32;0.75;;;20.90;39.30;;;;;;4995570;28;20054;-79
2023/03/29 15:33:44;;;;;;;3.85;0.93;;;20.80;39.80;;;;;;4995934;28;20037;-79
2023/03/29 15:36:12;;;;;;;2.78;0.70;;;20.80;39.60;;;;;;4995815;28;20477;-80
2023/03/29 15:38:40;;;;;;;2.70;1.00;;;20.80;39.50;;;;;;4993744;28;20034;-79
2023/03/29 15:41:07;;;;;;;4.38;2.05;;;20.70;39.90;;;;;;4981299;28;20022;-79
2023/03/29 15:43:33;;;;;;;1.75;0.82;;;20.70;39.90;;;;;;4977062;28;20505;-79
2023/03/29 15:45:58;;;;;;;2.47;0.90;;;20.50;40.40;;;;;;4979479;28;20406;-88
2023/03/29 15:48:27;;;;;;;3.53;1.40;;;20.40;41.00;;;;;;4993608;28;20026;-86
2023/03/29 15:50:53;;;;;;;4.35;0.98;;;20.30;40.70;;;;;;4994572;28;20069;-79
2023/03/29 15:53:20;;;;;;;3.63;0.90;;;20.30;40.80;;;;;;4996808;28;20034;-80
2023/03/29 15:55:51;;;;;;;3.00;0.98;;;20.30;41.20;;;;;;4982887;28;20552;-80
2023/03/29 15:58:21;;;;;;;3.33;1.00;;;20.40;42.30;;;;;;4995759;28;20031;-79
2023/03/29 16:00:49;;;;;;;;;;;20.40;42.60;;;;;;4983790;28;20057;-78
2023/03/29 16:03:15;;;;;;;3.40;1.33;;;20.40;42.30;;;;;;4995024;28;19917;-79
2023/03/29 16:05:42;;;;;;;2.65;1.65;;;20.30;41.80;;;;;;4977998;28;20054;-78
2023/03/29 16:08:11;;;;;;;3.63;0.85;;;20.20;42.30;;;;;;4995084;28;20544;-78
2023/03/29 16:10:37;;;;;;;2.05;0.90;;;20.00;42.40;;;;;;4977145;28;20018;-78
2023/03/29 16:13:03;;;;;;;4.30;1.27;;;20.00;43.00;;;;;;4974217;28;20038;-78
2023/03/29 16:15:31;;;;;;;4.32;1.20;;;20.00;43.20;;;;;;4993069;28;20498;-78
2023/03/29 16:17:56;;;;;;;4.38;1.70;;;19.80;42.80;;;;;;4979324;28;20056;-78
2023/03/29 16:20:23;;;;;;;6.93;1.63;;;19.80;42.70;;;;;;4977623;28;20536;-77
2023/03/29 16:22:50;;;;;;;1.73;0.88;;;19.80;43.10;;;;;;4977896;28;20030;-78
2023/03/29 16:25:21;;;;;;;6.70;1.90;;;19.80;42.90;;;;;;4995549;28;20401;-79
2023/03/29 16:27:47;;;;;;;2.83;1.05;;;19.80;42.90;;;;;;4970899;28;20022;-80
2023/03/29 16:30:14;;;;;;;2.72;1.25;;;19.70;42.60;;;;;;4994546;28;20430;-81
2023/03/29 16:32:40;;;;;;;2.50;1.20;;;19.70;42.30;;;;;;4979419;28;20026;-84
2023/03/29 16:35:20;;;;;;;6.70;1.65;;;19.80;42.80;;;;;;4979318;28;20840;-80
2023/03/29 16:37:46;;;;;;;;;;;19.70;43.70;;;;;;4983717;28;20524;-79
2023/03/29 16:40:11;;;;;;;3.28;1.10;;;19.70;43.40;;;;;;4977781;28;19917;-79
2023/03/29 16:42:38;;;;;;;3.28;0.95;;;19.70;43.20;;;;;;4979480;28;20038;-79
2023/03/29 16:45:04;;;;;;;4.80;1.35;;;19.70;42.80;;;;;;4977859;28;20485;-79
2023/03/29 16:47:30;;;;;;;2.83;1.23;;;19.60;43.30;;;;;;4993838;28;20105;-79
2023/03/29 16:49:55;;;;;;;1.20;0.70;;;19.60;43.10;;;;;;4991580;28;20061;-79
2023/03/29 16:52:22;;;;;;;2.85;1.25;;;19.50;43.90;;;;;;4992132;28;20405;-79
2023/03/29 16:54:47;;;;;;;3.08;0.70;;;19.50;44.20;;;;;;4989324;28;20056;-79
2023/03/29 16:57:13;;;;;;;3.05;1.00;;;19.30;43.70;;;;;;4975686;28;20031;-79
2023/03/29 16:59:41;;;;;;;7.55;1.30;;;19.20;43.90;;;;;;4991481;28;20026;-79
2023/03/29 17:02:08;;;;;;;2.65;0.90;;;19.10;44.20;;;;;;4989787;28;20023;-79
2023/03/29 17:04:33;;;;;;;2.08;0.98;;;19.00;45.20;;;;;;4988709;28;20077;-79
2023/03/29 17:06:59;;;;;;;8.32;1.27;;;18.90;44.90;;;;;;4987620;28;20023;-79
2023/03/29 17:09:33;;;;;;;4.35;0.85;;;18.90;45.50;;;;;;4985787;28;20038;-79
2023/03/29 17:11:59;;;;;;;2.78;0.93;;;18.90;46.20;;;;;;4989135;28;20547;-79
2023/03/29 17:14:25;;;;;;;3.90;0.90;;;18.90;46.70;;;;;;4987499;28;20030;-80
2023/03/29 17:16:52;;;;;;;3.17;1.10;;;19.00;47.50;;;;;;4987191;28;20019;-79
2023/03/29 17:19:18;;;;;;;2.17;0.90;;;19.00;47.20;;;;;;4988596;28;20026;-80
2023/03/29 17:21:43;;;;;;;3.95;1.17;;;19.10;47.90;;;;;;4986717;28;20477;-77
2023/03/29 17:24:09;;;;;;;2.88;1.13;;;19.20;47.50;;;;;;4969876;28;20049;-81
2023/03/29 17:26:36;;;;;;;7.50;1.63;;;19.10;47.40;;;;;;4987364;28;20079;-82
2023/03/29 17:29:03;;;;;;;1.63;0.77;;;19.10;47.80;;;;;;4984438;28;20030;-76
2023/03/29 17:31:28;;;;;;;3.38;0.85;;;18.90;48.30;;;;;;4981773;28;20414;-77
2023/03/29 17:33:54;;;;;;;5.25;1.63;;;18.80;48.30;;;;;;4987425;28;20042;-78
2023/03/29 17:36:24;;;;;;;4.20;1.27;;;18.70;49.30;;;;;;4993312;28;20019;-76
2023/03/29 17:38:50;;;;;;;3.58;1.42;;;18.60;49.50;;;;;;4987350;28;20027;-77
2023/03/29 17:41:17;;;;;;;5.25;1.65;;;18.50;50.30;;;;;;4988608;28;20065;-76